createdAt,value
2022-09-17T00:12:47.772Z,1014.1
2022-09-17T00:27:44.149Z,1014.2
2022-09-17T00:42:40.318Z,1014.2
2022-09-17T00:57:36.620Z,1014.2
2022-09-17T01:12:33.341Z,1014.3
2022-09-17T01:27:29.550Z,1014.4
2022-09-17T01:42:26.237Z,1014.4
2022-09-17T01:57:22.234Z,1014.4
2022-09-17T02:12:18.468Z,1014.4
2022-09-17T02:27:13.999Z,1014.5
2022-09-17T02:42:10.629Z,1014.6
2022-09-17T02:57:07.155Z,1014.6
2022-09-17T03:12:03.175Z,1014.6
2022-09-17T03:26:59.771Z,1014.7
2022-09-17T03:41:56.231Z,1014.7
2022-09-17T03:56:51.779Z,1014.7
2022-09-17T04:11:47.740Z,1014.8
2022-09-17T04:26:44.051Z,1014.9
2022-09-17T04:41:39.860Z,1014.8
2022-09-17T04:56:36.089Z,1015
2022-09-17T05:11:32.211Z,1015.1
2022-09-17T05:26:28.009Z,1015.2
2022-09-17T05:41:24.438Z,1015.3
2022-09-17T05:56:20.860Z,1015.4
2022-09-17T06:11:16.781Z,1015.6
2022-09-17T06:26:13.067Z,1015.6
2022-09-17T06:41:09.667Z,1015.9
2022-09-17T06:56:06.787Z,1015.8
2022-09-17T07:11:02.785Z,1015.8
2022-09-17T07:25:59.872Z,1015.7
2022-09-17T07:40:55.953Z,1015.9
2022-09-17T07:55:51.729Z,1016
2022-09-17T08:10:48.479Z,1016
2022-09-17T08:25:44.396Z,1015.9
2022-09-17T08:40:41.316Z,1016
2022-09-17T08:55:37.656Z,1016
2022-09-17T09:10:34.723Z,1016
2022-09-17T09:25:31.326Z,1016.1
2022-09-17T09:40:28.102Z,1016
2022-09-17T09:55:26.640Z,1016
2022-09-17T10:10:21.761Z,1016
2022-09-17T10:25:18.241Z,1015.8
2022-09-17T10:40:14.579Z,1015.8
2022-09-17T10:55:10.989Z,1015.6
2022-09-17T11:10:08.452Z,1015.8
2022-09-17T11:25:02.931Z,1015.8
2022-09-17T11:39:58.997Z,1015.7
2022-09-17T11:54:55.482Z,1015.6
2022-09-17T12:09:52.678Z,1015.4
2022-09-17T12:24:49.331Z,1015.4
2022-09-17T12:39:45.644Z,1015.7
2022-09-17T12:54:45.099Z,1015.5
2022-09-17T13:09:36.731Z,1015.9
2022-09-17T13:13:36.254Z,1015.8
2022-09-17T13:28:31.496Z,1015.5
2022-09-17T13:43:27.490Z,1015.3
2022-09-17T13:58:23.720Z,1015.4
2022-09-17T14:13:19.597Z,1015.6
2022-09-17T14:28:15.777Z,1015.8
2022-09-17T14:43:11.625Z,1015.7
2022-09-17T14:58:08.163Z,1015.5
2022-09-17T15:13:07.628Z,1015.2
2022-09-17T15:28:00.406Z,1015.2
2022-09-17T15:42:56.580Z,1015.4
2022-09-17T15:57:52.134Z,1015.9
2022-09-17T16:03:06.609Z,1016.5
2022-09-17T16:04:42.683Z,1016.3
2022-09-17T16:10:42.355Z,1016.3
2022-09-17T16:25:37.343Z,1016.4
2022-09-17T16:40:33.203Z,1016.1
2022-09-17T16:55:29.049Z,1016
2022-09-17T17:10:25.209Z,1016
2022-09-17T17:25:21.252Z,1016.2
2022-09-17T17:40:17.112Z,1016.2
2022-09-17T17:55:13.489Z,1016.4
2022-09-17T18:10:09.512Z,1016.5
2022-09-17T18:25:06.044Z,1016.5
2022-09-17T18:40:02.356Z,1016.8
2022-09-17T18:54:58.547Z,1016.9
2022-09-17T19:09:54.676Z,1017
2022-09-17T19:24:51.180Z,1016.9
2022-09-17T19:39:47.533Z,1016.9
2022-09-17T19:54:43.549Z,1017.1
2022-09-17T20:09:39.492Z,1017
2022-09-17T20:24:35.863Z,1017.2
2022-09-17T20:39:31.884Z,1017.3
2022-09-17T20:54:28.005Z,1017.2
2022-09-17T22:09:09.209Z,1017.3
2022-09-17T22:24:05.438Z,1017.3
2022-09-17T22:39:01.837Z,1017.2
2022-09-17T22:53:57.768Z,1017.3
2022-09-17T23:08:54.306Z,1017.2
2022-09-17T23:23:50.353Z,1017.3
2022-09-17T23:38:46.587Z,1017.3
2022-09-17T23:53:43.218Z,1017.3
